ADDS METAR Data INFO
IDs: Format: Raw Decoded Include TAF

Data at: 0936 UTC 11 Dec 2017

K6I2 110910Z AUTO 19004KT 10SM CLR 00/M06 A3011 RMK AO2
K6I2 110850Z AUTO 00000KT 10SM CLR 00/M06 A3012 RMK AO2
K6I2 110830Z AUTO 00000KT 10SM CLR 00/M06 A3012 RMK AO2
K6I2 110810Z AUTO 00000KT 10SM CLR 00/M06 A3013 RMK AO2
K6I2 110750Z AUTO 00000KT 10SM CLR 00/M06 A3013 RMK AO2
K6I2 110730Z AUTO 19005KT 10SM CLR 00/M06 A3013 RMK AO2
K6I2 110710Z AUTO 00000KT 10SM CLR 00/M07 A3014 RMK AO2
K6I2 110650Z AUTO 21003KT 10SM CLR 00/M07 A3013 RMK AO2
K6I2 110630Z AUTO 22006KT 10SM CLR 00/M07 A3014 RMK AO2
K6I2 110610Z AUTO 00000KT 10SM CLR 00/M07 A3013 RMK AO2
K6I2 110550Z AUTO 20006KT 10SM CLR 01/M07 A3013 RMK AO2
K6I2 110530Z AUTO 21007KT 10SM CLR 01/M07 A3013 RMK AO2
K6I2 110510Z AUTO 20008KT 10SM CLR 01/M06 A3012 RMK AO2
K6I2 110450Z AUTO 20009KT 10SM CLR 02/M07 A3012 RMK AO2
K6I2 110430Z AUTO 19008KT 10SM CLR 02/M07 A3012 RMK AO2
K6I2 110410Z AUTO 19009KT 10SM CLR 02/M07 A3012 RMK AO2
K6I2 110350Z AUTO 20008KT 10SM CLR 02/M07 A3011 RMK AO2
K6I2 110330Z AUTO 20009KT 10SM CLR 02/M07 A3011 RMK AO2
K6I2 110310Z AUTO 19011KT 10SM CLR 02/M07 A3010 RMK AO2
K6I2 110250Z AUTO 19011KT 10SM CLR 02/M07 A3009 RMK AO2
K6I2 110230Z AUTO 19009KT 10SM CLR 02/M07 A3010 RMK AO2
K6I2 110210Z AUTO 20009KT 10SM CLR 02/M07 A3010 RMK AO2
K6I2 110150Z AUTO 20009KT 10SM CLR 02/M07 A3009 RMK AO2
K6I2 110130Z AUTO 20007KT 10SM CLR 02/M07 A3009 RMK AO2
K6I2 110110Z AUTO 20007KT 10SM CLR 01/M07 A3009 RMK AO2
K6I2 110050Z AUTO 19007KT 10SM CLR 00/M07 A3009 RMK AO2
K6I2 110030Z AUTO 20005KT 10SM CLR 01/M07 A3008 RMK AO2
K6I2 110010Z AUTO 20006KT 10SM CLR 01/M07 A3008 RMK AO2
K6I2 102350Z AUTO 19006KT 10SM CLR 01/M07 A3007 RMK AO2
K6I2 102330Z AUTO 20006KT 10SM CLR 02/M07 A3007 RMK AO2
K6I2 102310Z AUTO 19008KT 10SM CLR 02/M07 A3006 RMK AO2
K6I2 102250Z AUTO 19010KT 10SM CLR 02/M07 A3004 RMK AO2
K6I2 102230Z AUTO 20011KT 10SM CLR 03/M07 A3004 RMK AO2
K6I2 102210Z AUTO 20013G17KT 10SM CLR 03/M07 A3003 RMK AO2
K6I2 102150Z AUTO 19013KT 10SM CLR 03/M08 A3003 RMK AO2
K6I2 102130Z AUTO 19014G19KT 10SM CLR 03/M08 A3002 RMK AO2
K6I2 102110Z AUTO 18013G19KT 10SM CLR 04/M07 A3003 RMK AO2
K6I2 102050Z AUTO 19013KT 10SM CLR 04/M08 A3004 RMK AO2
K6I2 102030Z AUTO 19012G17KT 10SM CLR 03/M08 A3005 RMK AO2
K6I2 102010Z AUTO 19018KT 10SM FEW110 04/M08 A3005 RMK AO2
K6I2 101950Z AUTO 19012G19KT 10SM FEW090 03/M08 A3007 RMK AO2
K6I2 101930Z AUTO 19015G19KT 10SM CLR 03/M08 A3007 RMK AO2
K6I2 101910Z AUTO 19017G21KT 10SM CLR 03/M08 A3009 RMK AO2
K6I2 101850Z AUTO 19013G19KT 10SM CLR 03/M08 A3011 RMK AO2
K6I2 101830Z AUTO 19015G20KT 10SM CLR 03/M08 A3011 RMK AO2
K6I2 101810Z AUTO 20014G22KT 10SM CLR 02/M08 A3013 RMK AO2
K6I2 101750Z AUTO 21014G19KT 10SM FEW110 02/M08 A3014 RMK AO2
K6I2 101730Z AUTO 20013G19KT 10SM BKN110 02/M07 A3016 RMK AO2
K6I2 101710Z AUTO 20015G19KT 10SM BKN110 00/M07 A3016 RMK AO2
K6I2 101650Z AUTO 20015KT 10SM BKN120 00/M08 A3017 RMK AO2
K6I2 101630Z AUTO 20015KT 10SM BKN120 00/M08 A3018 RMK AO2
K6I2 101610Z AUTO 19015G18KT 10SM CLR 00/M08 A3018 RMK AO2
K6I2 101550Z AUTO 21010G18KT 10SM CLR 00/M08 A3021 RMK AO2
K6I2 101530Z AUTO 21009G15KT 10SM CLR M01/M08 A3021 RMK AO2
K6I2 101510Z AUTO 19009KT 10SM FEW110 M02/M08 A3019 RMK AO2
K6I2 101450Z AUTO 19008KT 10SM BKN110 M02/M07 A3020 RMK AO2
K6I2 101430Z AUTO 19010KT 10SM BKN100 M03/M08 A3020 RMK AO2
K6I2 101410Z AUTO 19008KT 10SM BKN100 M04/M08 A3020 RMK AO2
K6I2 101350Z AUTO 18006KT 10SM FEW100 M05/M09 A3020 RMK AO2
K6I2 101330Z AUTO 19006KT 10SM CLR M05/M09 A3021 RMK AO2
K6I2 101310Z AUTO 18007KT 10SM CLR M05/M09 A3020 RMK AO2
K6I2 101250Z AUTO 18006KT 10SM CLR M05/M09 A3020 RMK AO2
K6I2 101230Z AUTO 19005KT 10SM CLR M06/M09 A3021 RMK AO2
K6I2 101210Z AUTO 19004KT 10SM CLR M06/M09 A3020 RMK AO2
K6I2 101150Z AUTO 18006KT 10SM CLR M06/M09 A3019 RMK AO2
K6I2 101130Z AUTO 19006KT 10SM CLR M06/M09 A3019 RMK AO2
K6I2 101110Z AUTO 19006KT 10SM CLR M06/M09 A3019 RMK AO2
K6I2 101050Z AUTO 19005KT 10SM CLR M06/M09 A3019 RMK AO2
K6I2 101030Z AUTO 00000KT 10SM CLR M06/M09 A3018 RMK AO2
K6I2 101010Z AUTO 20005KT 10SM CLR M06/M09 A3018 RMK AO2
K6I2 100950Z AUTO 19005KT 10SM CLR M06/M09 A3018 RMK AO2
K6I2 100930Z AUTO 20005KT 10SM CLR M05/M09 A3018 RMK AO2
K6I2 100910Z AUTO 21005KT 10SM CLR M05/M09 A3018 RMK AO2
K6I2 100850Z AUTO 21005KT 10SM CLR M05/M09 A3017 RMK AO2
K6I2 100830Z AUTO 21006KT 10SM CLR M05/M09 A3018 RMK AO2
K6I2 100810Z AUTO 00000KT 10SM CLR M05/M09 A3018 RMK AO2
K6I2 100750Z AUTO 20003KT 10SM CLR M05/M09 A3017 RMK AO2
K6I2 100730Z AUTO 23004KT 10SM CLR M05/M09 A3017 RMK AO2
K6I2 100710Z AUTO 23003KT 10SM CLR M05/M09 A3016 RMK AO2
K6I2 100650Z AUTO 23004KT 10SM CLR M05/M09 A3016 RMK AO2
K6I2 100630Z AUTO 00000KT 10SM CLR M05/M09 A3016 RMK AO2
K6I2 100610Z AUTO 26006KT 10SM CLR M04/M09 A3016 RMK AO2
K6I2 100550Z AUTO 24004KT 10SM CLR M04/M09 A3016 RMK AO2
K6I2 100530Z AUTO 24005KT 10SM CLR M04/M09 A3015 RMK AO2
K6I2 100510Z AUTO 25005KT 10SM CLR M03/M09 A3015 RMK AO2
K6I2 100450Z AUTO 24005KT 10SM CLR M03/M09 A3015 RMK AO2
K6I2 100430Z AUTO 28008KT 10SM FEW041 M02/M09 A3014 RMK AO2
K6I2 100410Z AUTO 26009KT 10SM FEW041 M02/M09 A3014 RMK AO2
K6I2 100350Z AUTO 28009G14KT 10SM CLR M02/M09 A3013 RMK AO2
K6I2 100330Z AUTO 28008KT 10SM CLR M02/M09 A3013 RMK AO2
K6I2 100310Z AUTO 27009KT 10SM FEW041 M02/M09 A3012 RMK AO2
K6I2 100250Z AUTO 27008KT 10SM FEW041 M02/M09 A3011 RMK AO2
K6I2 100230Z AUTO 29007KT 10SM CLR M02/M09 A3010 RMK AO2
K6I2 100210Z AUTO 29012G16KT 10SM CLR M02/M08 A3008 RMK AO2
K6I2 100150Z AUTO 28009KT 10SM CLR M02/M07 A3008 RMK AO2
K6I2 100130Z AUTO 28007KT 10SM CLR M02/M07 A3007 RMK AO2
K6I2 100110Z AUTO 28006KT 10SM CLR M02/M07 A3006 RMK AO2
K6I2 100050Z AUTO 28009G14KT 10SM CLR M02/M06 A3006 RMK AO2
K6I2 100030Z AUTO 28012G20KT 7SM FEW001 M01/M05 A3004 RMK AO2
K6I2 100010Z AUTO 27011G16KT 4SM UP BKN001 BKN016 M01/M03 A3003 RMK AO2
K6I2 092350Z AUTO 24010KT 2 1/2SM UP FEW002 SCT014 BKN018 M01/M03 A3002 RMK AO2
K6I2 092330Z AUTO 24007KT 10SM BKN022 BKN029 M01/M04 A3000 RMK AO2
K6I2 092310Z AUTO 23008KT 8SM SCT020 SCT038 BKN060 M01/M04 A2999 RMK AO2
K6I2 092250Z AUTO 23008KT 9SM FEW036 BKN060 M01/M04 A2998 RMK AO2
K6I2 092230Z AUTO 23006KT 4SM UP FEW025 FEW049 BKN060 M01/M04 A2997 RMK AO2
K6I2 092210Z AUTO 23006KT 3SM UP FEW011 BKN041 OVC055 M01/M04 A2996 RMK AO2
K6I2 092150Z AUTO 24006KT 5SM UP FEW035 BKN048 BKN055 M01/M04 A2995 RMK AO2